sensor_id;sensor_type;location;lat;lon;timestamp;P1;durP1;ratioP1;P2;durP2;ratioP2
66972;SDS011;53902;51.466;-2.586;2022-09-30T00:01:05;17.15;;;8.38;;
66972;SDS011;53902;51.466;-2.586;2022-09-30T00:03:31;17.77;;;8.75;;
66972;SDS011;53902;51.466;-2.586;2022-09-30T00:05:57;14.63;;;8.15;;
66972;SDS011;53902;51.466;-2.586;2022-09-30T00:08:23;14.35;;;7.78;;
66972;SDS011;53902;51.466;-2.586;2022-09-30T00:10:57;17.15;;;8.48;;
66972;SDS011;53902;51.466;-2.586;2022-09-30T00:13:23;12.90;;;7.43;;
66972;SDS011;53902;51.466;-2.586;2022-09-30T00:15:49;15.30;;;8.13;;
66972;SDS011;53902;51.466;-2.586;2022-09-30T00:18:14;16.50;;;7.55;;
66972;SDS011;53902;51.466;-2.586;2022-09-30T00:20:40;13.40;;;7.38;;
66972;SDS011;53902;51.466;-2.586;2022-09-30T00:23:05;15.68;;;7.30;;
66972;SDS011;53902;51.466;-2.586;2022-09-30T00:25:30;12.07;;;6.97;;
66972;SDS011;53902;51.466;-2.586;2022-09-30T00:27:56;13.07;;;7.38;;
66972;SDS011;53902;51.466;-2.586;2022-09-30T00:30:21;12.65;;;6.72;;
66972;SDS011;53902;51.466;-2.586;2022-09-30T00:32:47;12.82;;;7.10;;
66972;SDS011;53902;51.466;-2.586;2022-09-30T00:35:12;10.70;;;6.85;;
66972;SDS011;53902;51.466;-2.586;2022-09-30T00:37:37;11.57;;;6.93;;
66972;SDS011;53902;51.466;-2.586;2022-09-30T00:40:03;10.60;;;6.53;;
66972;SDS011;53902;51.466;-2.586;2022-09-30T00:42:28;13.30;;;6.93;;
66972;SDS011;53902;51.466;-2.586;2022-09-30T00:44:59;10.82;;;6.70;;
66972;SDS011;53902;51.466;-2.586;2022-09-30T00:47:31;11.32;;;6.88;;
66972;SDS011;53902;51.466;-2.586;2022-09-30T00:52:36;14.88;;;7.10;;
66972;SDS011;53902;51.466;-2.586;2022-09-30T00:55:03;11.52;;;6.43;;
66972;SDS011;53902;51.466;-2.586;2022-09-30T00:57:32;12.20;;;6.57;;
66972;SDS011;53902;51.466;-2.586;2022-09-30T01:00:01;11.27;;;6.17;;
66972;SDS011;53902;51.466;-2.586;2022-09-30T01:02:28;11.90;;;6.18;;
66972;SDS011;53902;51.466;-2.586;2022-09-30T01:04:54;10.43;;;6.43;;
66972;SDS011;53902;51.466;-2.586;2022-09-30T01:07:21;9.90;;;6.00;;
66972;SDS011;53902;51.466;-2.586;2022-09-30T01:09:47;11.85;;;5.53;;
66972;SDS011;53902;51.466;-2.586;2022-09-30T01:12:15;11.38;;;5.80;;
66972;SDS011;53902;51.466;-2.586;2022-09-30T01:14:42;11.65;;;5.75;;
66972;SDS011;53902;51.466;-2.586;2022-09-30T01:27:34;9.82;;;5.80;;
66972;SDS011;53902;51.466;-2.586;2022-09-30T01:30:22;11.15;;;6.07;;
66972;SDS011;53902;51.466;-2.586;2022-09-30T01:38:51;14.30;;;6.40;;
66972;SDS011;53902;51.466;-2.586;2022-09-30T01:41:25;7.93;;;5.30;;
66972;SDS011;53902;51.466;-2.586;2022-09-30T01:47:11;9.13;;;5.53;;
66972;SDS011;53902;51.466;-2.586;2022-09-30T01:49:49;14.25;;;6.25;;
66972;SDS011;53902;51.466;-2.586;2022-09-30T01:57:38;14.23;;;6.35;;
66972;SDS011;53902;51.466;-2.586;2022-09-30T02:00:15;12.93;;;5.65;;
66972;SDS011;53902;51.466;-2.586;2022-09-30T02:02:45;9.30;;;6.03;;
66972;SDS011;53902;51.466;-2.586;2022-09-30T02:05:17;12.02;;;6.53;;
66972;SDS011;53902;51.466;-2.586;2022-09-30T02:07:49;11.45;;;6.13;;
66972;SDS011;53902;51.466;-2.586;2022-09-30T02:10:23;9.80;;;5.60;;
66972;SDS011;53902;51.466;-2.586;2022-09-30T02:12:54;9.52;;;5.30;;
66972;SDS011;53902;51.466;-2.586;2022-09-30T02:15:22;11.70;;;5.93;;
66972;SDS011;53902;51.466;-2.586;2022-09-30T02:17:55;8.15;;;5.13;;
66972;SDS011;53902;51.466;-2.586;2022-09-30T02:20:32;11.57;;;6.35;;
66972;SDS011;53902;51.466;-2.586;2022-09-30T02:23:02;10.38;;;5.70;;
66972;SDS011;53902;51.466;-2.586;2022-09-30T02:25:34;6.85;;;4.68;;
66972;SDS011;53902;51.466;-2.586;2022-09-30T02:28:04;7.82;;;5.00;;
66972;SDS011;53902;51.466;-2.586;2022-09-30T02:30:33;10.63;;;5.60;;
66972;SDS011;53902;51.466;-2.586;2022-09-30T02:33:02;13.57;;;5.57;;
66972;SDS011;53902;51.466;-2.586;2022-09-30T02:35:54;8.98;;;5.25;;
66972;SDS011;53902;51.466;-2.586;2022-09-30T02:38:23;9.25;;;5.28;;
66972;SDS011;53902;51.466;-2.586;2022-09-30T02:40:54;9.02;;;5.55;;
66972;SDS011;53902;51.466;-2.586;2022-09-30T02:43:22;6.70;;;5.10;;
66972;SDS011;53902;51.466;-2.586;2022-09-30T02:48:52;7.60;;;5.07;;
66972;SDS011;53902;51.466;-2.586;2022-09-30T02:51:12;10.20;;;5.35;;
66972;SDS011;53902;51.466;-2.586;2022-09-30T02:53:47;11.35;;;5.45;;
66972;SDS011;53902;51.466;-2.586;2022-09-30T02:56:22;11.85;;;6.18;;
66972;SDS011;53902;51.466;-2.586;2022-09-30T02:58:51;8.95;;;5.03;;
66972;SDS011;53902;51.466;-2.586;2022-09-30T03:01:17;10.43;;;5.90;;
66972;SDS011;53902;51.466;-2.586;2022-09-30T03:03:44;8.23;;;5.38;;
66972;SDS011;53902;51.466;-2.586;2022-09-30T03:06:14;10.55;;;5.47;;
66972;SDS011;53902;51.466;-2.586;2022-09-30T03:08:40;9.35;;;5.13;;
66972;SDS011;53902;51.466;-2.586;2022-09-30T03:11:06;10.05;;;5.53;;
66972;SDS011;53902;51.466;-2.586;2022-09-30T03:27:50;9.57;;;5.05;;
66972;SDS011;53902;51.466;-2.586;2022-09-30T03:30:29;6.72;;;4.13;;
66972;SDS011;53902;51.466;-2.586;2022-09-30T03:35:52;6.00;;;4.25;;
66972;SDS011;53902;51.466;-2.586;2022-09-30T03:39:00;9.63;;;4.28;;
66972;SDS011;53902;51.466;-2.586;2022-09-30T03:46:56;5.47;;;4.10;;
66972;SDS011;53902;51.466;-2.586;2022-09-30T03:50:07;7.85;;;4.05;;
66972;SDS011;53902;51.466;-2.586;2022-09-30T03:52:14;7.93;;;4.35;;
66972;SDS011;53902;51.466;-2.586;2022-09-30T03:54:45;6.47;;;3.73;;
66972;SDS011;53902;51.466;-2.586;2022-09-30T03:57:18;9.98;;;4.13;;
66972;SDS011;53902;51.466;-2.586;2022-09-30T03:59:43;6.78;;;4.40;;
66972;SDS011;53902;51.466;-2.586;2022-09-30T04:02:09;7.30;;;4.35;;
66972;SDS011;53902;51.466;-2.586;2022-09-30T04:04:37;6.80;;;4.57;;
66972;SDS011;53902;51.466;-2.586;2022-09-30T04:07:05;7.07;;;4.32;;
66972;SDS011;53902;51.466;-2.586;2022-09-30T04:09:31;6.00;;;4.05;;
66972;SDS011;53902;51.466;-2.586;2022-09-30T04:11:56;6.32;;;4.25;;
66972;SDS011;53902;51.466;-2.586;2022-09-30T04:14:22;6.38;;;4.03;;
66972;SDS011;53902;51.466;-2.586;2022-09-30T04:16:47;6.80;;;3.97;;
66972;SDS011;53902;51.466;-2.586;2022-09-30T04:19:23;7.45;;;4.57;;
66972;SDS011;53902;51.466;-2.586;2022-09-30T04:21:52;5.03;;;3.88;;
66972;SDS011;53902;51.466;-2.586;2022-09-30T04:24:21;7.15;;;4.20;;
66972;SDS011;53902;51.466;-2.586;2022-09-30T04:26:47;7.50;;;4.20;;
66972;SDS011;53902;51.466;-2.586;2022-09-30T04:29:12;5.82;;;3.88;;
66972;SDS011;53902;51.466;-2.586;2022-09-30T04:31:38;7.25;;;4.32;;
66972;SDS011;53902;51.466;-2.586;2022-09-30T04:34:03;6.53;;;4.15;;
66972;SDS011;53902;51.466;-2.586;2022-09-30T04:36:29;8.30;;;4.88;;
66972;SDS011;53902;51.466;-2.586;2022-09-30T04:38:54;5.18;;;3.80;;
66972;SDS011;53902;51.466;-2.586;2022-09-30T04:41:20;6.63;;;3.83;;
66972;SDS011;53902;51.466;-2.586;2022-09-30T04:43:46;5.38;;;3.67;;
66972;SDS011;53902;51.466;-2.586;2022-09-30T04:46:16;6.18;;;4.05;;
66972;SDS011;53902;51.466;-2.586;2022-09-30T04:48:42;5.93;;;3.85;;
66972;SDS011;53902;51.466;-2.586;2022-09-30T04:53:38;5.53;;;3.20;;
66972;SDS011;53902;51.466;-2.586;2022-09-30T04:56:04;5.78;;;3.75;;
66972;SDS011;53902;51.466;-2.586;2022-09-30T04:58:30;4.95;;;3.58;;
66972;SDS011;53902;51.466;-2.586;2022-09-30T05:01:02;5.03;;;3.42;;
66972;SDS011;53902;51.466;-2.586;2022-09-30T05:03:35;5.38;;;4.03;;
66972;SDS011;53902;51.466;-2.586;2022-09-30T05:06:01;5.53;;;3.45;;
66972;SDS011;53902;51.466;-2.586;2022-09-30T05:08:27;4.83;;;3.43;;
66972;SDS011;53902;51.466;-2.586;2022-09-30T05:10:53;4.47;;;3.65;;
66972;SDS011;53902;51.466;-2.586;2022-09-30T05:13:21;6.25;;;3.80;;
66972;SDS011;53902;51.466;-2.586;2022-09-30T05:15:49;7.00;;;4.00;;
66972;SDS011;53902;51.466;-2.586;2022-09-30T05:18:15;7.55;;;3.40;;
66972;SDS011;53902;51.466;-2.586;2022-09-30T05:20:40;4.45;;;3.45;;
66972;SDS011;53902;51.466;-2.586;2022-09-30T05:23:06;4.50;;;3.45;;
66972;SDS011;53902;51.466;-2.586;2022-09-30T05:25:33;5.50;;;3.83;;
66972;SDS011;53902;51.466;-2.586;2022-09-30T05:27:59;5.93;;;3.88;;
66972;SDS011;53902;51.466;-2.586;2022-09-30T05:30:24;5.45;;;3.33;;
66972;SDS011;53902;51.466;-2.586;2022-09-30T05:32:50;5.82;;;3.55;;
66972;SDS011;53902;51.466;-2.586;2022-09-30T05:35:15;5.22;;;3.40;;
66972;SDS011;53902;51.466;-2.586;2022-09-30T05:37:41;5.57;;;3.53;;
66972;SDS011;53902;51.466;-2.586;2022-09-30T05:40:07;5.10;;;3.65;;
66972;SDS011;53902;51.466;-2.586;2022-09-30T05:42:33;8.35;;;4.00;;
66972;SDS011;53902;51.466;-2.586;2022-09-30T05:44:59;5.57;;;3.25;;
66972;SDS011;53902;51.466;-2.586;2022-09-30T05:47:25;4.57;;;3.28;;
66972;SDS011;53902;51.466;-2.586;2022-09-30T05:49:51;5.53;;;3.70;;
66972;SDS011;53902;51.466;-2.586;2022-09-30T05:52:16;6.25;;;3.90;;
66972;SDS011;53902;51.466;-2.586;2022-09-30T05:54:41;6.25;;;4.03;;
66972;SDS011;53902;51.466;-2.586;2022-09-30T05:57:07;4.57;;;3.42;;
66972;SDS011;53902;51.466;-2.586;2022-09-30T05:59:32;5.25;;;3.55;;
66972;SDS011;53902;51.466;-2.586;2022-09-30T06:01:58;5.82;;;3.75;;
66972;SDS011;53902;51.466;-2.586;2022-09-30T06:04:23;4.97;;;3.50;;
66972;SDS011;53902;51.466;-2.586;2022-09-30T06:06:49;6.68;;;3.25;;
66972;SDS011;53902;51.466;-2.586;2022-09-30T06:09:15;5.07;;;3.40;;
66972;SDS011;53902;51.466;-2.586;2022-09-30T06:11:41;5.60;;;3.67;;
66972;SDS011;53902;51.466;-2.586;2022-09-30T06:14:06;4.07;;;3.10;;
66972;SDS011;53902;51.466;-2.586;2022-09-30T06:16:32;4.18;;;3.22;;
66972;SDS011;53902;51.466;-2.586;2022-09-30T06:18:57;4.75;;;3.75;;
66972;SDS011;53902;51.466;-2.586;2022-09-30T06:21:23;5.35;;;3.60;;
66972;SDS011;53902;51.466;-2.586;2022-09-30T06:23:49;5.63;;;3.40;;
66972;SDS011;53902;51.466;-2.586;2022-09-30T06:26:14;5.32;;;3.60;;
66972;SDS011;53902;51.466;-2.586;2022-09-30T06:28:40;4.00;;;3.15;;
66972;SDS011;53902;51.466;-2.586;2022-09-30T06:31:06;4.65;;;3.42;;
66972;SDS011;53902;51.466;-2.586;2022-09-30T06:33:32;7.18;;;3.83;;
66972;SDS011;53902;51.466;-2.586;2022-09-30T06:35:58;5.82;;;3.83;;
66972;SDS011;53902;51.466;-2.586;2022-09-30T06:38:26;16.55;;;3.65;;
66972;SDS011;53902;51.466;-2.586;2022-09-30T06:40:52;6.40;;;3.92;;
66972;SDS011;53902;51.466;-2.586;2022-09-30T06:43:18;7.28;;;3.83;;
66972;SDS011;53902;51.466;-2.586;2022-09-30T06:45:44;5.13;;;3.58;;
66972;SDS011;53902;51.466;-2.586;2022-09-30T06:48:11;5.18;;;3.75;;
66972;SDS011;53902;51.466;-2.586;2022-09-30T06:50:36;5.53;;;3.58;;
66972;SDS011;53902;51.466;-2.586;2022-09-30T06:53:03;4.55;;;3.60;;
66972;SDS011;53902;51.466;-2.586;2022-09-30T06:55:30;7.88;;;3.90;;
66972;SDS011;53902;51.466;-2.586;2022-09-30T06:57:56;6.85;;;3.72;;
66972;SDS011;53902;51.466;-2.586;2022-09-30T07:00:22;11.75;;;3.88;;
66972;SDS011;53902;51.466;-2.586;2022-09-30T07:02:49;6.35;;;4.07;;
66972;SDS011;53902;51.466;-2.586;2022-09-30T07:05:14;6.10;;;4.15;;
66972;SDS011;53902;51.466;-2.586;2022-09-30T07:07:41;7.13;;;4.40;;
66972;SDS011;53902;51.466;-2.586;2022-09-30T07:10:08;7.07;;;4.30;;
66972;SDS011;53902;51.466;-2.586;2022-09-30T07:12:34;6.60;;;4.00;;
66972;SDS011;53902;51.466;-2.586;2022-09-30T07:14:59;4.75;;;3.63;;
66972;SDS011;53902;51.466;-2.586;2022-09-30T07:17:25;5.28;;;4.28;;
66972;SDS011;53902;51.466;-2.586;2022-09-30T07:19:51;6.10;;;4.07;;
66972;SDS011;53902;51.466;-2.586;2022-09-30T07:22:20;5.80;;;4.05;;
66972;SDS011;53902;51.466;-2.586;2022-09-30T07:24:52;6.97;;;4.30;;
66972;SDS011;53902;51.466;-2.586;2022-09-30T07:27:18;6.47;;;4.10;;
66972;SDS011;53902;51.466;-2.586;2022-09-30T07:29:45;6.30;;;4.25;;
66972;SDS011;53902;51.466;-2.586;2022-09-30T07:32:10;7.72;;;4.63;;
66972;SDS011;53902;51.466;-2.586;2022-09-30T07:34:36;8.48;;;4.45;;
66972;SDS011;53902;51.466;-2.586;2022-09-30T07:40:24;6.00;;;4.25;;
66972;SDS011;53902;51.466;-2.586;2022-09-30T07:42:55;6.30;;;4.13;;
66972;SDS011;53902;51.466;-2.586;2022-09-30T07:45:21;6.20;;;4.22;;
66972;SDS011;53902;51.466;-2.586;2022-09-30T07:47:47;6.10;;;4.05;;
66972;SDS011;53902;51.466;-2.586;2022-09-30T07:50:12;9.07;;;4.80;;
66972;SDS011;53902;51.466;-2.586;2022-09-30T07:52:39;6.93;;;4.45;;
66972;SDS011;53902;51.466;-2.586;2022-09-30T07:55:05;6.90;;;4.38;;
66972;SDS011;53902;51.466;-2.586;2022-09-30T07:57:30;9.68;;;4.72;;
66972;SDS011;53902;51.466;-2.586;2022-09-30T07:59:56;6.68;;;4.00;;
66972;SDS011;53902;51.466;-2.586;2022-09-30T08:02:21;7.45;;;4.68;;
66972;SDS011;53902;51.466;-2.586;2022-09-30T08:04:48;6.72;;;4.60;;
66972;SDS011;53902;51.466;-2.586;2022-09-30T08:07:14;7.32;;;4.55;;
66972;SDS011;53902;51.466;-2.586;2022-09-30T08:09:41;6.53;;;4.55;;
66972;SDS011;53902;51.466;-2.586;2022-09-30T08:12:06;6.32;;;4.05;;
66972;SDS011;53902;51.466;-2.586;2022-09-30T08:14:32;5.32;;;3.53;;
66972;SDS011;53902;51.466;-2.586;2022-09-30T08:16:58;5.18;;;3.33;;
66972;SDS011;53902;51.466;-2.586;2022-09-30T08:19:24;6.20;;;4.00;;
66972;SDS011;53902;51.466;-2.586;2022-09-30T08:21:51;6.60;;;3.53;;
66972;SDS011;53902;51.466;-2.586;2022-09-30T08:24:19;6.43;;;3.33;;
66972;SDS011;53902;51.466;-2.586;2022-09-30T08:26:45;5.88;;;3.42;;
66972;SDS011;53902;51.466;-2.586;2022-09-30T08:29:11;4.25;;;2.90;;
66972;SDS011;53902;51.466;-2.586;2022-09-30T08:31:39;3.60;;;2.78;;
66972;SDS011;53902;51.466;-2.586;2022-09-30T08:34:05;4.82;;;2.85;;
66972;SDS011;53902;51.466;-2.586;2022-09-30T08:36:30;4.00;;;2.60;;
66972;SDS011;53902;51.466;-2.586;2022-09-30T08:38:56;4.15;;;2.50;;
66972;SDS011;53902;51.466;-2.586;2022-09-30T08:44:22;6.25;;;2.47;;
66972;SDS011;53902;51.466;-2.586;2022-09-30T08:52:21;5.40;;;2.75;;
66972;SDS011;53902;51.466;-2.586;2022-09-30T08:54:51;4.43;;;3.05;;
66972;SDS011;53902;51.466;-2.586;2022-09-30T08:57:18;2.70;;;2.17;;
66972;SDS011;53902;51.466;-2.586;2022-09-30T08:59:49;6.07;;;2.85;;
66972;SDS011;53902;51.466;-2.586;2022-09-30T09:05:02;3.58;;;2.60;;
66972;SDS011;53902;51.466;-2.586;2022-09-30T09:07:39;2.88;;;2.40;;
66972;SDS011;53902;51.466;-2.586;2022-09-30T09:18:16;2.53;;;1.80;;
66972;SDS011;53902;51.466;-2.586;2022-09-30T09:23:24;4.25;;;2.00;;
66972;SDS011;53902;51.466;-2.586;2022-09-30T09:25:50;2.58;;;1.70;;
66972;SDS011;53902;51.466;-2.586;2022-09-30T09:31:14;2.05;;;1.67;;
66972;SDS011;53902;51.466;-2.586;2022-09-30T09:33:41;3.33;;;1.80;;
66972;SDS011;53902;51.466;-2.586;2022-09-30T09:39:20;1.98;;;1.75;;
66972;SDS011;53902;51.466;-2.586;2022-09-30T09:44:51;2.15;;;1.48;;
66972;SDS011;53902;51.466;-2.586;2022-09-30T09:47:25;2.15;;;1.58;;
66972;SDS011;53902;51.466;-2.586;2022-09-30T09:49:57;3.40;;;1.42;;
66972;SDS011;53902;51.466;-2.586;2022-09-30T09:55:04;2.63;;;1.17;;
66972;SDS011;53902;51.466;-2.586;2022-09-30T09:57:30;2.88;;;1.30;;
66972;SDS011;53902;51.466;-2.586;2022-09-30T10:03:27;2.13;;;1.30;;
66972;SDS011;53902;51.466;-2.586;2022-09-30T10:08:27;0.90;;;0.90;;
66972;SDS011;53902;51.466;-2.586;2022-09-30T10:10:57;1.20;;;1.05;;
66972;SDS011;53902;51.466;-2.586;2022-09-30T10:15:57;1.63;;;1.10;;
66972;SDS011;53902;51.466;-2.586;2022-09-30T10:21:04;0.95;;;0.90;;
66972;SDS011;53902;51.466;-2.586;2022-09-30T10:23:38;8.05;;;1.40;;
66972;SDS011;53902;51.466;-2.586;2022-09-30T10:28:34;2.38;;;1.27;;
66972;SDS011;53902;51.466;-2.586;2022-09-30T10:31:25;1.63;;;1.15;;
66972;SDS011;53902;51.466;-2.586;2022-09-30T10:33:59;3.38;;;1.25;;
66972;SDS011;53902;51.466;-2.586;2022-09-30T10:36:36;1.73;;;1.33;;
66972;SDS011;53902;51.466;-2.586;2022-09-30T10:39:20;2.67;;;1.90;;
66972;SDS011;53902;51.466;-2.586;2022-09-30T10:41:49;3.33;;;1.23;;
66972;SDS011;53902;51.466;-2.586;2022-09-30T10:44:16;3.83;;;1.67;;
66972;SDS011;53902;51.466;-2.586;2022-09-30T10:46:47;1.95;;;1.30;;
66972;SDS011;53902;51.466;-2.586;2022-09-30T10:49:35;1.30;;;1.10;;
66972;SDS011;53902;51.466;-2.586;2022-09-30T10:52:03;2.13;;;1.20;;
66972;SDS011;53902;51.466;-2.586;2022-09-30T10:57:22;3.13;;;1.30;;
66972;SDS011;53902;51.466;-2.586;2022-09-30T10:59:50;5.90;;;1.33;;
66972;SDS011;53902;51.466;-2.586;2022-09-30T11:04:49;1.10;;;0.98;;
66972;SDS011;53902;51.466;-2.586;2022-09-30T11:09:55;1.30;;;1.15;;
66972;SDS011;53902;51.466;-2.586;2022-09-30T11:12:28;4.30;;;1.50;;
66972;SDS011;53902;51.466;-2.586;2022-09-30T11:17:46;1.13;;;1.02;;
66972;SDS011;53902;51.466;-2.586;2022-09-30T11:20:47;1.67;;;1.30;;
66972;SDS011;53902;51.466;-2.586;2022-09-30T11:23:24;1.75;;;0.98;;
66972;SDS011;53902;51.466;-2.586;2022-09-30T11:25:57;2.05;;;1.13;;
66972;SDS011;53902;51.466;-2.586;2022-09-30T11:34:06;3.47;;;1.65;;
66972;SDS011;53902;51.466;-2.586;2022-09-30T11:41:56;2.75;;;1.25;;
66972;SDS011;53902;51.466;-2.586;2022-09-30T11:44:34;4.88;;;1.70;;
66972;SDS011;53902;51.466;-2.586;2022-09-30T11:47:05;1.27;;;1.13;;
66972;SDS011;53902;51.466;-2.586;2022-09-30T11:52:41;3.42;;;1.13;;
66972;SDS011;53902;51.466;-2.586;2022-09-30T11:58:19;5.75;;;1.60;;
66972;SDS011;53902;51.466;-2.586;2022-09-30T12:00:48;3.35;;;1.40;;
66972;SDS011;53902;51.466;-2.586;2022-09-30T12:03:21;2.78;;;1.88;;
66972;SDS011;53902;51.466;-2.586;2022-09-30T12:05:56;2.78;;;1.30;;
66972;SDS011;53902;51.466;-2.586;2022-09-30T12:08:34;2.17;;;1.50;;
66972;SDS011;53902;51.466;-2.586;2022-09-30T12:11:13;2.83;;;1.30;;
66972;SDS011;53902;51.466;-2.586;2022-09-30T12:13:44;2.65;;;1.50;;
66972;SDS011;53902;51.466;-2.586;2022-09-30T12:16:18;2.45;;;2.00;;
66972;SDS011;53902;51.466;-2.586;2022-09-30T12:19:21;3.50;;;1.83;;
66972;SDS011;53902;51.466;-2.586;2022-09-30T12:21:52;3.08;;;1.38;;
66972;SDS011;53902;51.466;-2.586;2022-09-30T12:24:30;4.43;;;1.50;;
66972;SDS011;53902;51.466;-2.586;2022-09-30T12:27:04;2.90;;;1.50;;
66972;SDS011;53902;51.466;-2.586;2022-09-30T12:29:38;1.60;;;1.20;;
66972;SDS011;53902;51.466;-2.586;2022-09-30T12:47:06;4.35;;;1.40;;
66972;SDS011;53902;51.466;-2.586;2022-09-30T12:49:51;1.77;;;1.20;;
66972;SDS011;53902;51.466;-2.586;2022-09-30T12:52:19;3.55;;;1.33;;
66972;SDS011;53902;51.466;-2.586;2022-09-30T12:57:31;4.63;;;1.73;;
66972;SDS011;53902;51.466;-2.586;2022-09-30T13:02:45;1.40;;;1.00;;
66972;SDS011;53902;51.466;-2.586;2022-09-30T13:15:49;1.13;;;0.90;;
66972;SDS011;53902;51.466;-2.586;2022-09-30T13:28:51;3.25;;;0.80;;
66972;SDS011;53902;51.466;-2.586;2022-09-30T13:34:21;1.35;;;0.90;;
66972;SDS011;53902;51.466;-2.586;2022-09-30T13:39:44;0.73;;;0.70;;
66972;SDS011;53902;51.466;-2.586;2022-09-30T13:47:31;1.30;;;0.90;;
66972;SDS011;53902;51.466;-2.586;2022-09-30T13:52:47;0.80;;;0.80;;
66972;SDS011;53902;51.466;-2.586;2022-09-30T13:55:19;1.77;;;0.80;;
66972;SDS011;53902;51.466;-2.586;2022-09-30T13:57:52;1.65;;;0.80;;
66972;SDS011;53902;51.466;-2.586;2022-09-30T14:00:25;1.95;;;0.90;;
66972;SDS011;53902;51.466;-2.586;2022-09-30T14:03:05;1.73;;;0.70;;
66972;SDS011;53902;51.466;-2.586;2022-09-30T14:13:43;1.30;;;0.88;;
66972;SDS011;53902;51.466;-2.586;2022-09-30T14:16:34;1.85;;;0.70;;
66972;SDS011;53902;51.466;-2.586;2022-09-30T14:22:08;1.83;;;0.63;;
66972;SDS011;53902;51.466;-2.586;2022-09-30T14:24:35;4.97;;;0.77;;
66972;SDS011;53902;51.466;-2.586;2022-09-30T14:32:39;0.57;;;0.52;;
66972;SDS011;53902;51.466;-2.586;2022-09-30T14:35:26;1.95;;;0.73;;
66972;SDS011;53902;51.466;-2.586;2022-09-30T14:37:55;0.70;;;0.70;;
66972;SDS011;53902;51.466;-2.586;2022-09-30T14:40:26;3.15;;;0.98;;
66972;SDS011;53902;51.466;-2.586;2022-09-30T14:42:53;1.70;;;0.85;;
66972;SDS011;53902;51.466;-2.586;2022-09-30T14:45:26;1.67;;;1.00;;
66972;SDS011;53902;51.466;-2.586;2022-09-30T14:47:55;1.20;;;0.77;;
66972;SDS011;53902;51.466;-2.586;2022-09-30T14:50:23;1.17;;;0.85;;
66972;SDS011;53902;51.466;-2.586;2022-09-30T14:52:51;1.05;;;0.98;;
66972;SDS011;53902;51.466;-2.586;2022-09-30T14:55:29;2.63;;;1.95;;
66972;SDS011;53902;51.466;-2.586;2022-09-30T14:58:13;5.25;;;2.30;;
66972;SDS011;53902;51.466;-2.586;2022-09-30T15:00:55;2.40;;;0.82;;
66972;SDS011;53902;51.466;-2.586;2022-09-30T15:03:24;1.17;;;0.68;;
66972;SDS011;53902;51.466;-2.586;2022-09-30T15:05:51;0.85;;;0.68;;
66972;SDS011;53902;51.466;-2.586;2022-09-30T15:08:17;2.17;;;0.73;;
66972;SDS011;53902;51.466;-2.586;2022-09-30T15:10:45;2.35;;;0.75;;
66972;SDS011;53902;51.466;-2.586;2022-09-30T15:13:18;1.48;;;0.75;;
66972;SDS011;53902;51.466;-2.586;2022-09-30T15:15:46;0.88;;;0.50;;
66972;SDS011;53902;51.466;-2.586;2022-09-30T15:20:57;0.80;;;0.40;;
66972;SDS011;53902;51.466;-2.586;2022-09-30T15:23:30;4.13;;;0.65;;
66972;SDS011;53902;51.466;-2.586;2022-09-30T15:25:56;2.08;;;0.60;;
66972;SDS011;53902;51.466;-2.586;2022-09-30T15:28:22;2.33;;;0.70;;
66972;SDS011;53902;51.466;-2.586;2022-09-30T15:30:48;1.90;;;0.75;;
66972;SDS011;53902;51.466;-2.586;2022-09-30T15:33:19;0.52;;;0.52;;
66972;SDS011;53902;51.466;-2.586;2022-09-30T15:35:48;0.60;;;0.43;;
66972;SDS011;53902;51.466;-2.586;2022-09-30T15:38:24;1.58;;;0.63;;
66972;SDS011;53902;51.466;-2.586;2022-09-30T15:40:54;0.93;;;0.70;;
66972;SDS011;53902;51.466;-2.586;2022-09-30T15:43:30;1.35;;;0.65;;
66972;SDS011;53902;51.466;-2.586;2022-09-30T15:46:14;4.78;;;0.80;;
66972;SDS011;53902;51.466;-2.586;2022-09-30T15:48:40;1.20;;;0.80;;
66972;SDS011;53902;51.466;-2.586;2022-09-30T15:51:25;2.08;;;0.70;;
66972;SDS011;53902;51.466;-2.586;2022-09-30T15:53:51;1.48;;;0.63;;
66972;SDS011;53902;51.466;-2.586;2022-09-30T15:56:24;0.50;;;0.50;;
66972;SDS011;53902;51.466;-2.586;2022-09-30T16:09:38;1.40;;;0.85;;
66972;SDS011;53902;51.466;-2.586;2022-09-30T16:12:24;1.90;;;1.00;;
66972;SDS011;53902;51.466;-2.586;2022-09-30T16:15:05;3.15;;;0.50;;
66972;SDS011;53902;51.466;-2.586;2022-09-30T16:17:36;3.00;;;0.75;;
66972;SDS011;53902;51.466;-2.586;2022-09-30T16:27:35;0.70;;;0.60;;
66972;SDS011;53902;51.466;-2.586;2022-09-30T16:30:00;4.60;;;0.70;;
66972;SDS011;53902;51.466;-2.586;2022-09-30T16:32:27;0.45;;;0.45;;
66972;SDS011;53902;51.466;-2.586;2022-09-30T16:34:54;0.57;;;0.50;;
66972;SDS011;53902;51.466;-2.586;2022-09-30T16:37:20;1.77;;;0.70;;
66972;SDS011;53902;51.466;-2.586;2022-09-30T16:39:46;1.85;;;0.50;;
66972;SDS011;53902;51.466;-2.586;2022-09-30T16:42:12;2.63;;;0.88;;
66972;SDS011;53902;51.466;-2.586;2022-09-30T16:44:38;0.60;;;0.50;;
66972;SDS011;53902;51.466;-2.586;2022-09-30T16:47:10;1.13;;;0.60;;
66972;SDS011;53902;51.466;-2.586;2022-09-30T16:49:37;2.50;;;0.70;;
66972;SDS011;53902;51.466;-2.586;2022-09-30T16:52:02;2.35;;;0.50;;
66972;SDS011;53902;51.466;-2.586;2022-09-30T16:54:30;2.80;;;0.75;;
66972;SDS011;53902;51.466;-2.586;2022-09-30T16:56:55;0.63;;;0.60;;
66972;SDS011;53902;51.466;-2.586;2022-09-30T16:59:21;2.83;;;0.70;;
66972;SDS011;53902;51.466;-2.586;2022-09-30T17:01:47;1.30;;;0.52;;
66972;SDS011;53902;51.466;-2.586;2022-09-30T17:04:12;1.02;;;0.60;;
66972;SDS011;53902;51.466;-2.586;2022-09-30T17:06:37;0.30;;;0.30;;
66972;SDS011;53902;51.466;-2.586;2022-09-30T17:09:03;1.65;;;0.60;;
66972;SDS011;53902;51.466;-2.586;2022-09-30T17:11:30;0.57;;;0.50;;
66972;SDS011;53902;51.466;-2.586;2022-09-30T17:14:00;2.47;;;1.05;;
66972;SDS011;53902;51.466;-2.586;2022-09-30T17:16:27;0.85;;;0.80;;
66972;SDS011;53902;51.466;-2.586;2022-09-30T17:18:53;0.98;;;0.70;;
66972;SDS011;53902;51.466;-2.586;2022-09-30T17:21:19;1.20;;;0.70;;
66972;SDS011;53902;51.466;-2.586;2022-09-30T17:23:46;3.25;;;0.80;;
66972;SDS011;53902;51.466;-2.586;2022-09-30T17:26:12;0.52;;;0.52;;
66972;SDS011;53902;51.466;-2.586;2022-09-30T17:28:37;0.82;;;0.60;;
66972;SDS011;53902;51.466;-2.586;2022-09-30T17:31:03;0.50;;;0.50;;
66972;SDS011;53902;51.466;-2.586;2022-09-30T17:33:29;1.30;;;0.50;;
66972;SDS011;53902;51.466;-2.586;2022-09-30T17:35:59;1.80;;;0.95;;
66972;SDS011;53902;51.466;-2.586;2022-09-30T17:38:26;0.55;;;0.50;;
66972;SDS011;53902;51.466;-2.586;2022-09-30T17:40:52;1.00;;;0.90;;
66972;SDS011;53902;51.466;-2.586;2022-09-30T17:43:36;0.68;;;0.60;;
66972;SDS011;53902;51.466;-2.586;2022-09-30T17:46:02;1.08;;;0.63;;
66972;SDS011;53902;51.466;-2.586;2022-09-30T17:48:27;2.92;;;1.90;;
66972;SDS011;53902;51.466;-2.586;2022-09-30T17:50:52;1.95;;;0.90;;
66972;SDS011;53902;51.466;-2.586;2022-09-30T17:53:19;4.43;;;1.02;;
66972;SDS011;53902;51.466;-2.586;2022-09-30T17:55:46;1.77;;;0.80;;
66972;SDS011;53902;51.466;-2.586;2022-09-30T17:58:13;0.90;;;0.60;;
66972;SDS011;53902;51.466;-2.586;2022-09-30T18:00:39;1.10;;;0.77;;
66972;SDS011;53902;51.466;-2.586;2022-09-30T18:03:06;0.73;;;0.70;;
66972;SDS011;53902;51.466;-2.586;2022-09-30T18:05:33;2.22;;;0.98;;
66972;SDS011;53902;51.466;-2.586;2022-09-30T18:07:58;0.68;;;0.68;;
66972;SDS011;53902;51.466;-2.586;2022-09-30T18:10:24;1.05;;;0.82;;
66972;SDS011;53902;51.466;-2.586;2022-09-30T18:12:51;2.33;;;0.90;;
66972;SDS011;53902;51.466;-2.586;2022-09-30T18:15:17;0.88;;;0.80;;
66972;SDS011;53902;51.466;-2.586;2022-09-30T18:17:42;0.57;;;0.50;;
66972;SDS011;53902;51.466;-2.586;2022-09-30T18:20:08;0.80;;;0.68;;
66972;SDS011;53902;51.466;-2.586;2022-09-30T18:22:34;1.42;;;0.93;;
66972;SDS011;53902;51.466;-2.586;2022-09-30T18:25:00;1.05;;;0.98;;
66972;SDS011;53902;51.466;-2.586;2022-09-30T18:27:44;1.17;;;1.00;;
66972;SDS011;53902;51.466;-2.586;2022-09-30T18:30:10;0.90;;;0.68;;
66972;SDS011;53902;51.466;-2.586;2022-09-30T18:32:37;1.15;;;0.90;;